Time;durP1;ratioP1;P1;durP2;ratioP2;P2;SDS_P1;SDS_P2;PMS_P1;PMS_P2;Temp;Humidity;BMP_temperature;BMP_pressure;BME280_temperature;BME280_humidity;BME280_pressure;Samples;Min_cycle;Max_cycle;Signal;HPM_P1;HPM_P2
2021/05/21 04:52:36;;;;;;;4.28;1.98;;;12.00;99.90;;;;;;4958845;23;20059;-68
2021/05/21 04:55:03;;;;;;;2.58;1.95;;;12.00;99.90;;;;;;4949690;28;20051;-67
2021/05/21 04:57:30;;;;;;;3.25;2.03;;;12.10;99.90;;;;;;4948229;29;20540;-67
2021/05/21 04:59:56;;;;;;;4.18;2.10;;;12.00;99.90;;;;;;4951866;29;20426;-67
2021/05/21 05:02:23;;;;;;;2.78;1.92;;;12.20;99.90;;;;;;4926631;28;20050;-67
2021/05/21 05:04:50;;;;;;;3.65;2.25;;;12.20;99.90;;;;;;4966675;23;20424;-84
2021/05/21 05:07:22;;;;;;;3.53;1.92;;;12.20;99.90;;;;;;4933523;29;20142;-85
2021/05/21 05:09:49;;;;;;;5.82;2.30;;;12.20;99.90;;;;;;4945698;29;20047;-88
2021/05/21 05:12:18;;;;;;;3.33;2.30;;;12.20;99.90;;;;;;4943757;28;20111;-86
2021/05/21 05:14:45;;;;;;;4.63;2.60;;;12.20;99.90;;;;;;4917306;29;20159;-88
2021/05/21 05:17:14;;;;;;;6.32;1.90;;;12.30;99.90;;;;;;4922750;23;20059;31
2021/05/21 05:19:41;;;;;;;2.72;2.00;;;12.30;99.90;;;;;;4966397;28;20043;-69
2021/05/21 05:22:08;;;;;;;5.85;1.98;;;12.40;99.90;;;;;;4958578;28;20101;-69
2021/05/21 05:24:35;;;;;;;3.53;2.10;;;12.40;99.90;;;;;;4964615;28;20125;-69
2021/05/21 05:27:03;;;;;;;2.55;2.20;;;12.40;99.90;;;;;;4971386;28;20039;-69
2021/05/21 05:29:33;;;;;;;2.45;1.90;;;12.50;99.90;;;;;;4970281;28;20057;-69
2021/05/21 05:32:01;;;;;;;5.88;2.08;;;12.50;99.90;;;;;;4970857;28;20499;-69
2021/05/21 05:34:27;;;;;;;2.75;1.92;;;12.60;99.90;;;;;;4965785;28;20040;-69
2021/05/21 05:36:54;;;;;;;;;;;12.60;99.90;;;;;;4970281;28;20043;-69
2021/05/21 05:39:21;;;;;;;5.47;1.90;;;12.70;99.90;;;;;;4957748;28;19922;-70
2021/05/21 05:41:49;;;;;;;;;;;12.70;99.90;;;;;;4961514;28;20082;-72
2021/05/21 05:44:17;;;;;;;4.45;2.53;;;12.70;99.90;;;;;;4954181;29;20345;-69
2021/05/21 05:46:45;;;;;;;4.07;2.35;;;12.80;99.90;;;;;;4955170;28;20121;-70
2021/05/21 05:49:11;;;;;;;2.67;2.05;;;12.80;99.90;;;;;;4954512;29;20506;-69
2021/05/21 05:51:38;;;;;;;7.10;2.40;;;12.90;99.90;;;;;;4954458;29;20159;-68
2021/05/21 05:54:04;;;;;;;4.70;2.25;;;12.90;99.90;;;;;;4954146;28;20113;-69
2021/05/21 05:56:31;;;;;;;5.55;2.50;;;12.90;99.90;;;;;;4953423;29;20043;-67
2021/05/21 05:58:58;;;;;;;3.88;2.00;;;12.80;99.90;;;;;;4954488;28;20043;-67
2021/05/21 06:01:25;;;;;;;4.07;2.38;;;12.80;99.90;;;;;;4954326;28;20046;-68
2021/05/21 06:03:52;;;;;;;4.30;2.20;;;12.90;99.90;;;;;;4954308;29;20133;-69
2021/05/21 06:06:18;;;;;;;5.05;2.25;;;13.00;99.90;;;;;;4954211;28;20043;-67
2021/05/21 06:08:44;;;;;;;4.15;2.83;;;13.00;99.90;;;;;;4954724;29;20039;-67
2021/05/21 06:11:11;;;;;;;5.30;2.42;;;13.00;99.90;;;;;;4952751;29;20125;-68
2021/05/21 06:13:57;;;;;;;3.65;2.53;;;13.00;99.90;;;;;;4954310;28;20082;-68
2021/05/21 06:16:25;;;;;;;4.25;2.25;;;13.10;99.90;;;;;;4970122;28;20146;-67
2021/05/21 06:18:52;;;;;;;5.10;2.63;;;13.10;99.90;;;;;;4973662;28;20082;-68
2021/05/21 06:21:18;;;;;;;;;;;13.20;99.90;;;;;;4974725;28;20526;-68
2021/05/21 06:23:45;;;;;;;4.28;2.38;;;13.20;99.90;;;;;;4973891;28;19937;-67
2021/05/21 06:26:16;;;;;;;4.43;2.35;;;13.40;99.90;;;;;;4973624;28;20047;-68
2021/05/21 06:28:43;;;;;;;3.03;2.60;;;13.30;99.90;;;;;;4973028;28;20043;-68
2021/05/21 06:31:10;;;;;;;;;;;13.30;99.90;;;;;;4973936;28;20503;-68
2021/05/21 06:33:37;;;;;;;3.80;2.20;;;13.40;99.90;;;;;;4973034;28;19928;-68
2021/05/21 06:36:05;;;;;;;4.55;2.70;;;13.40;99.90;;;;;;4972009;28;20082;-69
2021/05/21 06:38:31;;;;;;;6.03;2.10;;;13.50;99.90;;;;;;4974354;28;20579;-68
2021/05/21 06:40:58;;;;;;;3.95;2.33;;;13.60;99.90;;;;;;4974366;28;20035;-68
2021/05/21 06:43:28;;;;;;;;;;;13.70;99.90;;;;;;4975996;28;20042;-69
2021/05/21 06:45:55;;;;;;;6.15;2.70;;;13.70;99.90;;;;;;4973453;28;20397;-69
2021/05/21 06:48:26;;;;;;;6.80;2.40;;;13.80;99.90;;;;;;4974948;28;20043;-68
2021/05/21 06:50:54;;;;;;;2.80;2.28;;;13.70;99.90;;;;;;4974544;28;20047;-68
2021/05/21 06:53:22;;;;;;;4.32;2.33;;;13.70;99.90;;;;;;4976306;28;20058;-68
2021/05/21 06:55:48;;;;;;;2.80;1.90;;;13.70;99.90;;;;;;4977478;28;20043;-68
2021/05/21 06:58:17;;;;;;;3.63;2.00;;;13.60;99.90;;;;;;4977729;28;20482;-68
2021/05/21 07:00:43;;;;;;;6.70;2.05;;;13.80;99.90;;;;;;4981295;28;20291;-67
2021/05/21 07:03:10;;;;;;;1.90;1.70;;;13.90;99.90;;;;;;4989674;28;20082;-69
2021/05/21 07:05:37;;;;;;;3.40;2.00;;;14.20;99.90;;;;;;4989199;28;20109;-69
2021/05/21 07:08:05;;;;;;;6.28;1.92;;;14.20;99.90;;;;;;4989238;28;20097;-68
2021/05/21 07:10:32;;;;;;;6.30;2.50;;;14.20;99.90;;;;;;4988409;28;20058;-67
2021/05/21 07:13:07;;;;;;;5.53;2.13;;;14.20;99.90;;;;;;4990718;28;20115;-69
2021/05/21 07:15:33;;;;;;;2.10;1.73;;;14.20;99.90;;;;;;4988483;28;20119;-68
2021/05/21 07:18:00;;;;;;;4.50;1.98;;;14.10;99.90;;;;;;4974609;28;20058;-68
2021/05/21 07:20:27;;;;;;;3.65;1.70;;;14.30;99.90;;;;;;4972573;28;20426;-68
2021/05/21 07:22:54;;;;;;;7.80;1.88;;;14.40;99.90;;;;;;4973517;28;20050;-68
2021/05/21 07:25:22;;;;;;;2.85;1.83;;;14.60;99.90;;;;;;4973128;28;20356;-69
2021/05/21 07:27:48;;;;;;;3.38;1.77;;;14.50;99.90;;;;;;4972979;28;20043;-68
2021/05/21 07:30:17;;;;;;;4.93;1.77;;;14.50;99.90;;;;;;4971598;28;20470;-68
2021/05/21 07:32:43;;;;;;;4.95;2.03;;;14.50;99.90;;;;;;4971154;28;20522;-68
2021/05/21 07:35:51;;;;;;;10.95;2.03;;;14.60;99.90;;;;;;4972370;28;20507;-68
2021/05/21 07:38:18;;;;;;;11.23;1.73;;;14.70;99.90;;;;;;4953445;28;20036;-68
2021/05/21 07:40:46;;;;;;;4.93;1.65;;;14.80;99.90;;;;;;4971699;28;20255;-68
2021/05/21 07:43:12;;;;;;;7.45;2.22;;;14.70;99.90;;;;;;4971384;28;20414;-68
2021/05/21 07:45:38;;;;;;;1.45;1.20;;;14.80;99.90;;;;;;4972241;28;20093;-68
2021/05/21 07:48:06;;;;;;;8.68;1.63;;;14.90;99.90;;;;;;4970920;28;20066;-69
2021/05/21 07:50:37;;;;;;;3.63;1.35;;;15.00;99.90;;;;;;4972262;28;20046;-69
2021/05/21 07:53:04;;;;;;;2.65;1.15;;;15.00;99.90;;;;;;4972309;28;20448;-68
2021/05/21 07:55:31;;;;;;;5.35;1.20;;;15.10;99.90;;;;;;4972620;28;20051;-69
2021/05/21 07:57:58;;;;;;;;;;;15.00;99.90;;;;;;4971116;28;20034;-69
2021/05/21 08:00:25;;;;;;;2.92;1.40;;;15.10;99.90;;;;;;4972007;28;19933;-68
2021/05/21 08:02:52;;;;;;;2.92;1.10;;;15.10;99.90;;;;;;4970358;28;20419;-69
2021/05/21 08:05:18;;;;;;;2.80;1.13;;;15.00;99.90;;;;;;4972132;28;20565;-69
2021/05/21 08:07:45;;;;;;;3.70;1.30;;;15.20;99.90;;;;;;4971859;28;20061;-68
2021/05/21 08:10:12;;;;;;;;;;;15.20;99.90;;;;;;4970846;28;20053;-68
2021/05/21 08:12:38;;;;;;;7.30;1.35;;;15.20;99.90;;;;;;4971564;28;19926;-69
2021/05/21 08:15:07;;;;;;;;;;;15.30;99.90;;;;;;4970453;28;20047;-68
2021/05/21 08:17:34;;;;;;;2.15;1.13;;;15.40;99.90;;;;;;4969611;28;19930;-68
2021/05/21 08:20:02;;;;;;;3.80;1.30;;;15.60;99.90;;;;;;4971694;28;20051;-68
2021/05/21 08:22:29;;;;;;;2.30;1.23;;;15.60;99.90;;;;;;4970129;28;20566;-69
2021/05/21 08:24:55;;;;;;;;;;;15.60;99.90;;;;;;4972350;28;20514;-68
2021/05/21 08:27:22;;;;;;;2.22;1.30;;;15.80;99.90;;;;;;4971291;28;20040;-69
2021/05/21 08:29:48;;;;;;;4.07;1.65;;;15.90;99.90;;;;;;4971658;28;20126;-68
2021/05/21 08:32:16;;;;;;;2.78;1.05;;;15.90;99.90;;;;;;4971308;28;20098;-69
2021/05/21 08:34:43;;;;;;;1.63;1.00;;;16.50;99.90;;;;;;4969939;28;20081;-69
2021/05/21 08:37:09;;;;;;;2.55;1.20;;;16.50;99.90;;;;;;4971374;28;20646;-69
2021/05/21 08:39:38;;;;;;;3.38;1.00;;;16.80;99.90;;;;;;4971255;28;20573;-69
2021/05/21 08:42:07;;;;;;;1.77;1.00;;;16.90;99.90;;;;;;4971124;28;20050;-69
2021/05/21 08:44:36;;;;;;;1.65;0.90;;;17.10;99.90;;;;;;4970932;28;20053;-68
2021/05/21 08:47:03;;;;;;;3.42;0.80;;;17.10;99.90;;;;;;4969929;28;20077;-69
2021/05/21 08:49:30;;;;;;;6.43;1.13;;;17.20;99.90;;;;;;4971470;28;20061;-70
2021/05/21 08:51:59;;;;;;;2.17;1.05;;;17.70;99.90;;;;;;4971654;28;20141;-68
2021/05/21 08:54:32;;;;;;;2.22;0.82;;;18.30;99.90;;;;;;4974836;28;20061;-70
2021/05/21 08:56:59;;;;;;;2.13;0.80;;;18.70;99.90;;;;;;4975787;28;20061;-67
2021/05/21 08:59:25;;;;;;;;;;;19.00;99.90;;;;;;4975718;28;20407;-68
2021/05/21 09:01:53;;;;;;;5.05;1.30;;;18.50;99.90;;;;;;4973549;28;19969;-67
2021/05/21 09:04:20;;;;;;;3.38;0.80;;;18.20;99.90;;;;;;4974935;28;20146;-68
2021/05/21 09:06:47;;;;;;;;;;;18.10;99.90;;;;;;4975325;28;20078;-67
2021/05/21 09:09:14;;;;;;;2.22;1.00;;;18.40;99.90;;;;;;4975307;28;19926;-68
2021/05/21 09:11:43;;;;;;;3.35;0.95;;;18.40;99.90;;;;;;4974969;28;20043;-67
2021/05/21 09:14:14;;;;;;;5.03;1.10;;;18.70;99.90;;;;;;4974684;28;20122;-68
2021/05/21 09:16:41;;;;;;;4.88;1.15;;;18.10;99.90;;;;;;4974791;28;20569;-68
2021/05/21 09:19:14;;;;;;;2.15;0.80;;;17.60;99.90;;;;;;4974540;28;20640;-68
2021/05/21 09:21:58;;;;;;;3.88;1.10;;;18.20;99.90;;;;;;4974707;28;20061;-68
2021/05/21 09:24:27;;;;;;;3.33;1.17;;;19.10;99.90;;;;;;4974305;28;20164;-68
2021/05/21 09:26:56;;;;;;;3.97;1.40;;;19.20;99.50;;;;;;4974718;28;20046;-68
2021/05/21 09:29:40;;;;;;;5.80;1.05;;;18.70;99.90;;;;;;4975040;28;20089;-68
2021/05/21 09:32:19;;;;;;;2.42;1.00;;;18.50;99.90;;;;;;4974606;28;20094;-68
2021/05/21 09:34:48;;;;;;;1.85;0.98;;;19.70;99.40;;;;;;4966637;28;20053;-69
2021/05/21 09:37:22;;;;;;;5.13;1.20;;;19.40;97.00;;;;;;4974871;28;20106;-69
2021/05/21 09:40:09;;;;;;;1.67;1.00;;;18.80;99.00;;;;;;4974246;28;20058;-69
2021/05/21 09:42:54;;;;;;;3.20;1.17;;;18.50;98.50;;;;;;4973158;28;20514;-68
2021/05/21 09:45:25;;;;;;;8.93;1.30;;;18.50;99.30;;;;;;4974684;28;20103;-69
2021/05/21 09:47:56;;;;;;;3.45;1.02;;;18.40;99.80;;;;;;4972871;28;20042;-68
2021/05/21 09:50:31;;;;;;;3.88;1.30;;;18.20;99.60;;;;;;4972674;28;20055;-69
2021/05/21 09:53:03;;;;;;;5.07;1.02;;;18.10;99.50;;;;;;4973587;28;20514;-68
2021/05/21 09:55:36;;;;;;;5.60;1.10;;;18.10;99.10;;;;;;4974001;28;20053;-68
2021/05/21 09:58:04;;;;;;;6.40;1.23;;;18.10;99.30;;;;;;4972422;28;20522;-68
2021/05/21 10:00:31;;;;;;;4.43;1.05;;;18.40;99.00;;;;;;4972487;28;20047;-68
2021/05/21 10:03:01;;;;;;;3.78;1.33;;;18.40;99.80;;;;;;4973989;28;20058;-68
2021/05/21 10:05:28;;;;;;;2.80;1.27;;;18.00;99.50;;;;;;4973290;28;20059;-68
2021/05/21 10:07:54;;;;;;;;;;;17.50;99.90;;;;;;4975638;28;20052;-68
2021/05/21 10:10:25;;;;;;;5.25;1.15;;;17.00;99.90;;;;;;4975812;28;19930;-68
2021/05/21 10:12:52;;;;;;;2.95;1.25;;;17.40;99.90;;;;;;4974044;28;20059;-68
2021/05/21 10:15:18;;;;;;;;;;;17.80;99.90;;;;;;4974029;28;20058;-68
2021/05/21 10:17:45;;;;;;;4.10;1.38;;;18.30;99.00;;;;;;4973669;28;19926;-68
2021/05/21 10:20:14;;;;;;;4.30;1.10;;;18.10;98.80;;;;;;4973775;28;20069;-68
2021/05/21 10:22:45;;;;;;;4.15;1.42;;;17.90;96.90;;;;;;4973955;28;20038;-68
2021/05/21 10:25:15;;;;;;;7.65;1.52;;;17.60;96.70;;;;;;4973423;28;20049;-68
2021/05/21 10:27:46;;;;;;;3.67;1.55;;;17.60;96.80;;;;;;4973815;28;20058;-68
2021/05/21 10:30:15;;;;;;;5.80;1.85;;;17.90;96.70;;;;;;4973515;28;20054;-68
2021/05/21 10:32:41;;;;;;;8.40;1.40;;;18.60;93.60;;;;;;4973537;28;20055;-68
2021/05/21 10:35:16;;;;;;;11.30;2.40;;;18.10;93.10;;;;;;4973181;28;20053;-68
2021/05/21 10:38:18;;;;;;;9.25;1.70;;;17.70;92.70;;;;;;4973320;28;20085;-67
2021/05/21 10:41:14;;;;;;;6.60;1.55;;;18.10;92.40;;;;;;4973518;28;20110;-68
2021/05/21 10:43:50;;;;;;;4.18;1.30;;;18.50;91.00;;;;;;4972384;28;20414;-68
2021/05/21 10:46:48;;;;;;;6.30;1.85;;;18.10;91.60;;;;;;4963617;28;20046;-68
2021/05/21 10:49:24;;;;;;;6.28;1.52;;;18.60;91.60;;;;;;4973242;28;20047;-69
2021/05/21 10:51:52;;;;;;;5.38;1.65;;;18.60;91.70;;;;;;4971179;28;20055;-68
2021/05/21 10:54:31;;;;;;;7.35;2.28;;;18.50;92.10;;;;;;4971381;28;20495;-68
2021/05/21 10:57:10;;;;;;;8.60;2.03;;;18.60;92.40;;;;;;4973616;28;20050;-68
2021/05/21 10:59:54;;;;;;;7.07;1.80;;;19.20;91.50;;;;;;4973314;28;20457;-69
2021/05/21 11:02:22;;;;;;;9.40;2.25;;;19.10;90.90;;;;;;4973211;28;20046;-68
2021/05/21 11:04:49;;;;;;;4.35;1.65;;;19.10;91.90;;;;;;4973174;28;20274;-68
2021/05/21 11:07:31;;;;;;;8.68;2.08;;;19.30;92.70;;;;;;4972753;28;20058;-68
2021/05/21 11:09:58;;;;;;;11.32;2.53;;;19.00;92.00;;;;;;4971314;28;20129;-68
2021/05/21 11:12:43;;;;;;;11.75;2.30;;;18.60;92.70;;;;;;4972202;28;20105;-68
2021/05/21 11:15:35;;;;;;;5.15;1.70;;;19.30;92.40;;;;;;4972647;28;20094;-68
2021/05/21 11:18:27;;;;;;;9.32;2.70;;;19.40;91.90;;;;;;4971742;28;20161;-69
2021/05/21 11:20:55;;;;;;;7.95;1.80;;;19.30;92.10;;;;;;4970422;28;20427;-68
2021/05/21 11:23:28;;;;;;;9.68;2.30;;;19.00;92.70;;;;;;4972550;28;20122;-68
2021/05/21 11:26:01;;;;;;;7.72;2.08;;;19.10;92.60;;;;;;4971459;28;20077;-68
2021/05/21 11:28:29;;;;;;;9.52;2.50;;;19.10;92.80;;;;;;4972472;28;20138;-67
2021/05/21 11:30:56;;;;;;;12.55;2.75;;;19.40;90.80;;;;;;4972128;28;20055;-68
2021/05/21 11:33:23;;;;;;;8.95;2.03;;;19.90;91.20;;;;;;4967635;28;20126;-69
2021/05/21 11:35:54;;;;;;;11.25;2.78;;;19.70;91.30;;;;;;4962851;28;20058;-68
2021/05/21 11:38:25;;;;;;;10.20;2.17;;;19.40;91.30;;;;;;4968916;28;20110;-70
2021/05/21 11:40:52;;;;;;;11.07;2.53;;;19.10;92.40;;;;;;4965311;28;20599;-69
2021/05/21 11:43:22;;;;;;;7.05;1.77;;;19.20;92.90;;;;;;4968417;28;20422;-70
2021/05/21 11:45:50;;;;;;;11.45;2.22;;;19.10;92.30;;;;;;4972785;28;20193;-69
2021/05/21 11:48:31;;;;;;;9.18;2.35;;;19.30;92.30;;;;;;4966521;28;20057;-68
2021/05/21 11:50:58;;;;;;;8.63;2.67;;;18.80;93.50;;;;;;4972249;28;20045;-69
2021/05/21 11:53:24;;;;;;;;;;;19.10;93.80;;;;;;4969691;28;20045;-68
2021/05/21 11:55:50;;;;;;;9.38;2.45;;;19.90;92.60;;;;;;4970053;28;20422;-68
2021/05/21 11:58:22;;;;;;;6.80;2.50;;;19.60;91.80;;;;;;4964313;28;20035;-69
2021/05/21 12:00:51;;;;;;;6.78;2.17;;;19.60;92.10;;;;;;4951868;28;20476;-69
2021/05/21 12:03:19;;;;;;;11.88;2.67;;;19.80;90.80;;;;;;4951890;29;20047;-70
2021/05/21 12:05:47;;;;;;;9.52;2.30;;;19.40;91.20;;;;;;4961124;28;20046;-70
2021/05/21 12:08:14;;;;;;;6.20;1.85;;;19.50;91.40;;;;;;4958978;28;20061;-69
2021/05/21 12:10:41;;;;;;;8.63;1.90;;;19.70;91.30;;;;;;4962943;28;20499;-70
2021/05/21 12:13:09;;;;;;;10.27;2.30;;;20.20;88.30;;;;;;4963833;28;20051;-68
2021/05/21 12:15:36;;;;;;;5.90;1.63;;;20.20;87.00;;;;;;4962515;28;20142;-69
2021/05/21 12:18:05;;;;;;;8.13;2.30;;;19.60;87.20;;;;;;4951456;28;20134;-69
2021/05/21 12:20:32;;;;;;;7.32;2.35;;;20.50;89.10;;;;;;4951627;28;20074;-69
2021/05/21 12:23:05;;;;;;;7.78;1.85;;;19.80;88.30;;;;;;4960610;28;20473;-69
2021/05/21 12:25:33;;;;;;;7.82;2.72;;;19.70;90.20;;;;;;4967262;28;20054;-68
2021/05/21 12:28:00;;;;;;;6.10;1.83;;;20.50;88.90;;;;;;4954126;28;20039;-69
2021/05/21 12:30:28;;;;;;;7.43;2.40;;;21.00;86.90;;;;;;4952368;28;20046;-70
2021/05/21 12:32:54;;;;;;;9.48;2.03;;;20.70;86.30;;;;;;4967444;28;20089;-69
2021/05/21 12:35:36;;;;;;;6.97;2.28;;;20.00;85.10;;;;;;4970458;28;20051;-69
2021/05/21 12:38:04;;;;;;;14.35;2.58;;;19.60;86.90;;;;;;4968097;28;20082;-69
2021/05/21 12:40:32;;;;;;;6.75;2.33;;;18.90;87.80;;;;;;4965392;28;20082;-69
2021/05/21 12:43:05;;;;;;;6.95;1.90;;;19.30;86.70;;;;;;4961628;28;20133;-69
2021/05/21 12:45:35;;;;;;;9.57;2.13;;;19.50;88.10;;;;;;4967946;28;20074;-68
2021/05/21 12:48:01;;;;;;;7.75;2.30;;;19.70;86.40;;;;;;4965854;28;20130;-69
2021/05/21 12:50:33;;;;;;;15.30;5.05;;;20.10;86.30;;;;;;4960106;28;20039;-68
2021/05/21 12:53:03;;;;;;;8.45;2.17;;;20.40;84.20;;;;;;4961543;28;20047;-68
2021/05/21 12:55:29;;;;;;;6.22;1.40;;;20.50;83.80;;;;;;4966741;28;20074;-68
2021/05/21 12:57:57;;;;;;;8.35;1.67;;;20.10;79.50;;;;;;4956734;28;20444;-68
2021/05/21 13:00:25;;;;;;;7.05;2.30;;;19.80;78.90;;;;;;4954204;28;20050;-68
2021/05/21 13:02:55;;;;;;;6.28;1.90;;;20.00;79.50;;;;;;4951410;29;20043;-68
2021/05/21 13:05:25;;;;;;;6.55;1.80;;;19.70;81.70;;;;;;4966504;28;20035;-68
2021/05/21 13:07:57;;;;;;;7.03;1.98;;;19.90;82.60;;;;;;4966803;28;20039;-67
2021/05/21 13:10:26;;;;;;;9.30;1.73;;;19.10;83.30;;;;;;4954247;28;20488;-68
2021/05/21 13:12:54;;;;;;;7.35;2.10;;;19.80;83.00;;;;;;4959873;28;20041;-69
2021/05/21 13:15:23;;;;;;;6.03;1.90;;;19.90;84.20;;;;;;4961236;28;20118;-68
2021/05/21 13:17:51;;;;;;;7.15;1.98;;;20.60;80.20;;;;;;4956744;28;20035;-68
2021/05/21 13:20:22;;;;;;;11.25;2.55;;;20.20;80.10;;;;;;4951149;28;20043;-68
2021/05/21 13:22:51;;;;;;;6.85;2.00;;;20.30;80.80;;;;;;4969271;28;20046;-68
2021/05/21 13:25:19;;;;;;;7.07;1.70;;;20.80;79.60;;;;;;4954351;28;20106;-68
2021/05/21 13:27:49;;;;;;;8.32;2.03;;;20.30;79.90;;;;;;4956991;28;20100;-69
2021/05/21 13:30:19;;;;;;;9.57;1.83;;;20.10;82.40;;;;;;4958420;28;20051;-68
2021/05/21 13:32:46;;;;;;;6.68;1.90;;;19.40;83.80;;;;;;4956833;28;20487;-68
2021/05/21 13:35:13;;;;;;;8.00;2.35;;;19.30;85.60;;;;;;4958273;28;20050;-68
2021/05/21 13:37:40;;;;;;;6.03;1.88;;;19.70;85.70;;;;;;4960130;28;20458;-67
2021/05/21 13:40:09;;;;;;;9.68;2.22;;;19.40;84.70;;;;;;4961834;28;20479;-68
2021/05/21 13:42:36;;;;;;;7.57;2.35;;;18.60;86.90;;;;;;4961010;28;20053;-68
2021/05/21 13:45:04;;;;;;;7.97;2.03;;;18.70;88.70;;;;;;4965615;28;20070;-68
2021/05/21 13:47:30;;;;;;;9.18;2.50;;;18.30;88.80;;;;;;4968262;28;20122;-68
2021/05/21 13:49:57;;;;;;;8.65;1.88;;;18.50;90.20;;;;;;4972896;28;20062;-68
2021/05/21 13:52:23;;;;;;;;;;;18.10;90.10;;;;;;4954802;28;22004;-68
2021/05/21 13:54:50;;;;;;;6.63;1.90;;;18.10;90.50;;;;;;4955443;28;20366;-68
2021/05/21 13:57:17;;;;;;;;;;;18.80;91.30;;;;;;4969746;28;20491;-68
2021/05/21 13:59:43;;;;;;;8.50;1.80;;;19.80;89.40;;;;;;4957579;28;20370;-69
2021/05/21 14:02:11;;;;;;;;;;;20.20;86.90;;;;;;4959927;28;20535;-68
2021/05/21 14:04:38;;;;;;;7.13;2.28;;;20.20;84.80;;;;;;4953883;28;19923;-68
2021/05/21 14:07:05;;;;;;;7.10;2.17;;;20.70;85.50;;;;;;4954129;28;20043;-67
2021/05/21 14:09:32;;;;;;;6.18;2.00;;;20.60;85.30;;;;;;4958223;28;20047;-68
2021/05/21 14:11:59;;;;;;;;;;;20.10;85.20;;;;;;4962580;28;20137;-67
2021/05/21 14:14:26;;;;;;;5.93;2.03;;;19.80;85.00;;;;;;4956417;28;19934;-67
2021/05/21 14:16:53;;;;;;;;;;;19.40;84.30;;;;;;4968173;28;20046;-66
2021/05/21 14:19:21;;;;;;;8.13;1.55;;;19.10;86.30;;;;;;4965263;28;19922;-67
2021/05/21 14:21:48;;;;;;;8.90;2.28;;;18.80;86.30;;;;;;4963890;28;20122;-68
2021/05/21 14:24:15;;;;;;;9.60;2.03;;;19.60;85.20;;;;;;4957288;28;20414;-68
2021/05/21 14:26:43;;;;;;;7.55;2.13;;;20.10;82.60;;;;;;4961139;28;20045;-69
2021/05/21 14:29:10;;;;;;;6.60;1.50;;;20.10;81.80;;;;;;4956939;28;20043;-69
2021/05/21 14:31:41;;;;;;;11.27;1.83;;;20.00;81.20;;;;;;4964440;28;20061;-68
2021/05/21 14:34:08;;;;;;;8.25;1.83;;;20.00;81.30;;;;;;4959609;28;20071;-68
2021/05/21 14:36:36;;;;;;;4.78;1.45;;;20.10;81.40;;;;;;4955103;28;20039;-67
2021/05/21 14:39:04;;;;;;;6.60;1.83;;;19.90;77.60;;;;;;4960320;28;20039;-68
2021/05/21 14:41:30;;;;;;;6.13;1.73;;;19.40;78.20;;;;;;4952327;29;20109;-68
2021/05/21 14:43:57;;;;;;;8.65;2.13;;;19.00;80.10;;;;;;4963007;28;20042;-67
2021/05/21 14:46:23;;;;;;;9.80;1.92;;;18.70;80.50;;;;;;4966772;28;20259;-68
2021/05/21 14:48:50;;;;;;;4.15;1.70;;;18.60;81.10;;;;;;4966853;28;20129;-67
2021/05/21 14:51:17;;;;;;;9.02;1.90;;;18.50;80.80;;;;;;4956545;28;20415;-67
2021/05/21 14:53:45;;;;;;;10.07;2.40;;;18.50;80.80;;;;;;4970662;28;20047;-67
2021/05/21 14:56:12;;;;;;;6.47;1.83;;;18.40;80.70;;;;;;4964721;28;20048;-68
2021/05/21 14:58:38;;;;;;;7.13;1.80;;;18.20;82.00;;;;;;4956496;28;20042;-68
2021/05/21 15:01:06;;;;;;;;;;;18.40;81.80;;;;;;4971850;28;20427;-68
2021/05/21 15:03:35;;;;;;;8.23;1.70;;;18.30;81.10;;;;;;4964057;28;20291;-68
2021/05/21 15:06:01;;;;;;;7.70;1.67;;;18.20;81.70;;;;;;4969129;28;20051;-68
2021/05/21 15:08:28;;;;;;;5.88;1.73;;;18.50;82.50;;;;;;4963494;28;20093;-68
2021/05/21 15:10:55;;;;;;;10.52;2.45;;;18.30;81.80;;;;;;4957967;28;20122;-68
2021/05/21 15:13:26;;;;;;;8.35;1.80;;;18.60;80.20;;;;;;4958625;28;20574;-68
2021/05/21 15:15:57;;;;;;;7.78;1.70;;;18.70;80.00;;;;;;4957262;28;20055;-68
2021/05/21 15:24:18;;;;;;;7.68;1.70;;;18.10;80.80;;;;;;4962022;28;20046;-68
2021/05/21 15:26:46;;;;;;;6.20;1.63;;;18.20;83.00;;;;;;4952690;28;20051;-68
2021/05/21 15:29:13;;;;;;;6.05;1.52;;;18.40;82.60;;;;;;4964958;28;20043;-68
2021/05/21 15:31:39;;;;;;;;;;;18.30;83.20;;;;;;4962202;28;20499;-68
2021/05/21 15:34:06;;;;;;;7.65;1.90;;;18.00;84.00;;;;;;4957074;28;20023;-68
2021/05/21 15:36:33;;;;;;;6.53;1.65;;;18.30;84.30;;;;;;4953242;28;20193;-68
2021/05/21 15:39:00;;;;;;;;;;;18.50;82.10;;;;;;4952623;28;20089;-68
2021/05/21 15:41:30;;;;;;;8.18;2.20;;;18.50;83.40;;;;;;4953533;28;20386;-69
2021/05/21 15:46:45;;;;;;;7.03;1.58;;;18.20;84.20;;;;;;4966124;28;20138;-68
2021/05/21 15:49:16;;;;;;;9.65;2.25;;;18.20;83.90;;;;;;4963126;28;20063;-67
2021/05/21 15:51:46;;;;;;;5.55;1.77;;;18.20;83.70;;;;;;4966556;28;20298;-66
2021/05/21 15:54:26;;;;;;;10.15;2.50;;;18.30;83.00;;;;;;4963401;28;20129;-67
2021/05/21 15:57:13;;;;;;;11.73;2.35;;;17.90;82.50;;;;;;4969021;28;20042;-66
2021/05/21 15:59:42;;;;;;;10.73;2.10;;;18.10;83.30;;;;;;4967790;28;20199;-66
2021/05/21 16:02:08;;;;;;;8.10;2.03;;;18.10;83.90;;;;;;4967877;28;20081;-68
2021/05/21 16:04:37;;;;;;;;;;;18.10;83.70;;;;;;4963711;28;20117;-67
2021/05/21 16:07:04;;;;;;;7.90;1.80;;;18.20;84.70;;;;;;4967314;28;19972;-68
2021/05/21 16:09:33;;;;;;;56.63;32.47;;;18.30;84.60;;;;;;4961183;28;20392;-69
2021/05/21 16:12:00;;;;;;;18.33;7.38;;;18.20;86.20;;;;;;4966202;28;20057;-69
2021/05/21 16:14:28;;;;;;;12.63;2.83;;;18.30;84.60;;;;;;4967136;28;20051;-69
2021/05/21 16:16:56;;;;;;;7.10;2.75;;;18.60;84.90;;;;;;4956051;28;20058;-68
2021/05/21 16:19:22;;;;;;;7.75;2.05;;;18.80;85.50;;;;;;4955537;28;20042;-68
2021/05/21 16:21:49;;;;;;;9.98;2.67;;;18.80;84.90;;;;;;4964567;28;20074;-69
2021/05/21 16:24:16;;;;;;;7.80;1.73;;;18.20;85.80;;;;;;4958802;28;20046;-69
2021/05/21 16:26:43;;;;;;;6.78;1.92;;;17.50;87.70;;;;;;4960895;28;20533;-67
2021/05/21 16:29:10;;;;;;;9.60;1.95;;;17.30;89.50;;;;;;4966745;28;20491;-68
2021/05/21 16:31:37;;;;;;;6.45;1.95;;;17.40;89.90;;;;;;4958191;28;20057;-66
2021/05/21 16:34:07;;;;;;;7.32;1.73;;;17.30;89.90;;;;;;4951188;28;20546;-66
2021/05/21 16:36:36;;;;;;;7.15;1.70;;;17.20;89.90;;;;;;4962526;28;20133;-66
2021/05/21 16:39:06;;;;;;;7.57;2.30;;;17.20;90.10;;;;;;4957260;28;20054;-67
2021/05/21 16:41:32;;;;;;;4.15;1.63;;;17.10;90.30;;;;;;4954802;28;20035;-66
2021/05/21 16:43:59;;;;;;;10.30;1.90;;;17.10;90.20;;;;;;4952790;28;20447;-66
2021/05/21 16:46:26;;;;;;;4.78;1.75;;;17.30;89.80;;;;;;4955083;28;20648;-66
2021/05/21 16:48:53;;;;;;;;;;;17.40;89.00;;;;;;4961418;28;20518;-65
2021/05/21 16:51:22;;;;;;;5.97;2.30;;;17.40;88.90;;;;;;4951212;28;19932;-66
2021/05/21 16:53:49;;;;;;;5.55;1.52;;;17.20;88.60;;;;;;4951293;28;20126;-67
2021/05/21 16:56:16;;;;;;;5.60;2.10;;;17.20;89.80;;;;;;4966366;28;20061;-67
2021/05/21 16:58:44;;;;;;;;;;;17.20;89.40;;;;;;4969328;28;20047;-67
2021/05/21 17:01:12;;;;;;;4.60;1.60;;;17.30;88.20;;;;;;4958448;28;20383;-67
2021/05/21 17:03:41;;;;;;;7.45;1.40;;;17.30;88.80;;;;;;4958829;28;20054;-67
2021/05/21 17:06:08;;;;;;;11.88;2.05;;;17.30;87.90;;;;;;4959219;28;20053;-67
2021/05/21 17:08:35;;;;;;;;;;;17.10;88.80;;;;;;4952411;28;20115;-68
2021/05/21 17:11:04;;;;;;;8.32;2.00;;;17.00;88.50;;;;;;4955974;28;20397;-68
2021/05/21 17:13:33;;;;;;;7.07;1.88;;;17.10;88.80;;;;;;4974736;23;20047;-69
2021/05/21 17:16:03;;;;;;;7.63;1.88;;;17.00;89.00;;;;;;4933948;29;20123;-68
2021/05/21 17:43:45;;;;;;;78.75;41.85;;;16.70;90.00;;;;;;4903645;29;20056;-69
2021/05/21 17:46:19;;;;;;;73.38;43.65;;;16.80;90.10;;;;;;4910695;29;20151;-69
2021/05/21 17:48:53;;;;;;;51.08;29.73;;;16.90;90.40;;;;;;4914792;29;20533;-69
2021/05/21 17:51:55;;;;;;;21.05;9.77;;;16.90;90.60;;;;;;4914255;29;20135;-69
2021/05/21 17:54:30;;;;;;;10.38;2.33;;;16.80;90.60;;;;;;4913981;29;20078;-69
2021/05/21 18:00:13;;;;;;;11.95;2.10;;;16.60;88.90;;;;;;4908744;29;20467;-68
2021/05/21 18:08:11;;;;;;;5.03;2.08;;;16.30;89.50;;;;;;4905650;29;20040;-69
2021/05/21 18:10:50;;;;;;;13.05;1.70;;;16.30;89.30;;;;;;4909713;29;20512;-69
2021/05/21 18:24:54;;;;;;;9.50;1.60;;;16.00;90.60;;;;;;4914285;29;20552;-68
2021/05/21 18:44:02;;;;;;;10.10;2.10;;;15.60;91.80;;;;;;4914275;29;20127;-68
2021/05/21 18:52:24;;;;;;;6.27;1.60;;;15.20;99.90;;;;;;4904195;29;20075;-69
2021/05/21 18:54:54;;;;;;;6.68;1.65;;;15.10;99.90;;;;;;4915312;29;20052;-69
2021/05/21 19:00:23;;;;;;;6.45;1.95;;;15.00;99.90;;;;;;4910085;29;20139;-69
2021/05/21 19:02:52;;;;;;;7.05;1.83;;;14.90;99.90;;;;;;4911773;29;20108;-68
2021/05/21 19:05:22;;;;;;;4.50;1.30;;;14.80;99.90;;;;;;4910928;29;20241;-69
2021/05/21 19:07:52;;;;;;;5.57;1.80;;;14.70;99.90;;;;;;4906545;29;20048;-69
2021/05/21 19:10:23;;;;;;;4.85;1.67;;;14.70;99.90;;;;;;4912555;29;20123;-69
2021/05/21 19:12:59;;;;;;;8.27;1.60;;;14.60;99.90;;;;;;4907027;29;20047;-68
2021/05/21 19:15:28;;;;;;;4.50;1.17;;;14.60;99.90;;;;;;4912938;29;20044;-68